Anahuac, Texas
Current Conditions -  °F | °C
As of 6:50 AM on Friday 28 Nov 2014 (Local Time) from KEFD Reporting Station
Clear Clear  
Wind Chill: 48°   Ceiling: Unl
Heat Index: 48°   Visibility: 10mi
Dew Point: 46°   Wind: 2mph
Humidity: 93%   Direction: 60°ENE
Pressure: 30.37"   Gusts: NA
Location:  29.77°N, 94.68°W
Report Text: KEFD 281250Z 06002KT 10SM CLR 09/08 A3037
Loading
Personal Weather Stations






























Interactive Weather Map New forecast layout! Learn more

10-Day Weather Forecast

Advertisements
Track Severe Weather on mobile